sensor_id;sensor_type;location;lat;lon;timestamp;P1;durP1;ratioP1;P2;durP2;ratioP2
5333;SDS011;2689;50.954;7.116;2022-10-31T00:01:09;11.33;;;6.60;;
5333;SDS011;2689;50.954;7.116;2022-10-31T00:03:36;14.00;;;5.47;;
5333;SDS011;2689;50.954;7.116;2022-10-31T00:06:03;10.80;;;6.10;;
5333;SDS011;2689;50.954;7.116;2022-10-31T00:08:30;13.13;;;6.83;;
5333;SDS011;2689;50.954;7.116;2022-10-31T00:10:58;17.53;;;7.00;;
5333;SDS011;2689;50.954;7.116;2022-10-31T00:13:25;11.10;;;6.20;;
5333;SDS011;2689;50.954;7.116;2022-10-31T00:15:52;14.07;;;7.20;;
5333;SDS011;2689;50.954;7.116;2022-10-31T00:18:19;14.77;;;5.83;;
5333;SDS011;2689;50.954;7.116;2022-10-31T00:20:45;9.57;;;6.20;;
5333;SDS011;2689;50.954;7.116;2022-10-31T00:23:12;14.83;;;6.77;;
5333;SDS011;2689;50.954;7.116;2022-10-31T00:25:39;10.50;;;6.17;;
5333;SDS011;2689;50.954;7.116;2022-10-31T00:28:08;14.27;;;7.50;;
5333;SDS011;2689;50.954;7.116;2022-10-31T00:30:37;12.17;;;6.20;;
5333;SDS011;2689;50.954;7.116;2022-10-31T00:33:04;12.10;;;6.00;;
5333;SDS011;2689;50.954;7.116;2022-10-31T00:35:31;11.00;;;6.50;;
5333;SDS011;2689;50.954;7.116;2022-10-31T00:37:58;12.63;;;6.23;;
5333;SDS011;2689;50.954;7.116;2022-10-31T00:40:25;11.83;;;6.17;;
5333;SDS011;2689;50.954;7.116;2022-10-31T00:42:51;11.03;;;6.90;;
5333;SDS011;2689;50.954;7.116;2022-10-31T00:45:20;12.27;;;5.80;;
5333;SDS011;2689;50.954;7.116;2022-10-31T00:47:46;12.73;;;6.30;;
5333;SDS011;2689;50.954;7.116;2022-10-31T00:50:13;16.20;;;6.80;;
5333;SDS011;2689;50.954;7.116;2022-10-31T00:52:40;13.37;;;6.63;;
5333;SDS011;2689;50.954;7.116;2022-10-31T00:55:07;10.27;;;6.13;;
5333;SDS011;2689;50.954;7.116;2022-10-31T00:57:33;12.43;;;6.57;;
5333;SDS011;2689;50.954;7.116;2022-10-31T01:00:00;12.30;;;6.70;;
5333;SDS011;2689;50.954;7.116;2022-10-31T01:02:28;16.37;;;6.40;;
5333;SDS011;2689;50.954;7.116;2022-10-31T01:04:55;13.00;;;6.10;;
5333;SDS011;2689;50.954;7.116;2022-10-31T01:07:22;16.40;;;5.87;;
5333;SDS011;2689;50.954;7.116;2022-10-31T01:09:48;11.30;;;5.93;;
5333;SDS011;2689;50.954;7.116;2022-10-31T01:12:15;8.73;;;5.67;;
5333;SDS011;2689;50.954;7.116;2022-10-31T01:14:43;12.33;;;5.87;;
5333;SDS011;2689;50.954;7.116;2022-10-31T01:17:10;13.67;;;5.90;;
5333;SDS011;2689;50.954;7.116;2022-10-31T01:19:38;10.37;;;6.30;;
5333;SDS011;2689;50.954;7.116;2022-10-31T01:22:05;12.30;;;6.13;;
5333;SDS011;2689;50.954;7.116;2022-10-31T01:24:32;6.57;;;5.43;;
5333;SDS011;2689;50.954;7.116;2022-10-31T01:26:59;13.00;;;5.60;;
5333;SDS011;2689;50.954;7.116;2022-10-31T01:29:26;9.77;;;5.90;;
5333;SDS011;2689;50.954;7.116;2022-10-31T01:31:52;11.03;;;6.03;;
5333;SDS011;2689;50.954;7.116;2022-10-31T01:34:19;10.23;;;5.60;;
5333;SDS011;2689;50.954;7.116;2022-10-31T01:36:47;11.63;;;7.13;;
5333;SDS011;2689;50.954;7.116;2022-10-31T01:39:16;12.77;;;7.20;;
5333;SDS011;2689;50.954;7.116;2022-10-31T01:41:44;7.50;;;5.60;;
5333;SDS011;2689;50.954;7.116;2022-10-31T01:47:16;10.43;;;6.57;;
5333;SDS011;2689;50.954;7.116;2022-10-31T01:49:46;14.30;;;6.63;;
5333;SDS011;2689;50.954;7.116;2022-10-31T01:52:18;9.13;;;6.20;;
5333;SDS011;2689;50.954;7.116;2022-10-31T01:54:49;19.80;;;6.37;;
5333;SDS011;2689;50.954;7.116;2022-10-31T01:57:22;8.40;;;6.00;;
5333;SDS011;2689;50.954;7.116;2022-10-31T01:59:51;13.23;;;6.33;;
5333;SDS011;2689;50.954;7.116;2022-10-31T02:02:23;10.33;;;6.47;;
5333;SDS011;2689;50.954;7.116;2022-10-31T02:04:51;10.60;;;6.47;;
5333;SDS011;2689;50.954;7.116;2022-10-31T02:07:20;13.47;;;6.30;;
5333;SDS011;2689;50.954;7.116;2022-10-31T02:09:53;13.30;;;6.73;;
5333;SDS011;2689;50.954;7.116;2022-10-31T02:12:21;13.83;;;6.77;;
5333;SDS011;2689;50.954;7.116;2022-10-31T02:14:48;14.10;;;6.63;;
5333;SDS011;2689;50.954;7.116;2022-10-31T02:17:15;11.47;;;6.20;;
5333;SDS011;2689;50.954;7.116;2022-10-31T02:19:44;8.40;;;6.53;;
5333;SDS011;2689;50.954;7.116;2022-10-31T02:22:21;10.63;;;6.30;;
5333;SDS011;2689;50.954;7.116;2022-10-31T02:24:58;11.30;;;6.57;;
5333;SDS011;2689;50.954;7.116;2022-10-31T02:28:00;10.23;;;6.40;;
5333;SDS011;2689;50.954;7.116;2022-10-31T02:31:01;8.43;;;5.90;;
5333;SDS011;2689;50.954;7.116;2022-10-31T02:33:43;15.03;;;6.70;;
5333;SDS011;2689;50.954;7.116;2022-10-31T02:36:16;17.53;;;6.43;;
5333;SDS011;2689;50.954;7.116;2022-10-31T02:38:50;7.67;;;6.07;;
5333;SDS011;2689;50.954;7.116;2022-10-31T02:41:25;9.10;;;5.90;;
5333;SDS011;2689;50.954;7.116;2022-10-31T02:44:00;23.20;;;8.57;;
5333;SDS011;2689;50.954;7.116;2022-10-31T02:46:35;8.47;;;5.87;;
5333;SDS011;2689;50.954;7.116;2022-10-31T02:49:10;14.70;;;6.77;;
5333;SDS011;2689;50.954;7.116;2022-10-31T02:51:44;12.60;;;6.60;;
5333;SDS011;2689;50.954;7.116;2022-10-31T02:54:18;9.70;;;6.27;;
5333;SDS011;2689;50.954;7.116;2022-10-31T02:56:47;10.53;;;5.90;;
5333;SDS011;2689;50.954;7.116;2022-10-31T02:59:17;8.30;;;5.60;;
5333;SDS011;2689;50.954;7.116;2022-10-31T03:01:52;10.40;;;6.73;;
5333;SDS011;2689;50.954;7.116;2022-10-31T03:04:49;19.00;;;5.70;;
5333;SDS011;2689;50.954;7.116;2022-10-31T03:07:50;14.97;;;6.77;;
5333;SDS011;2689;50.954;7.116;2022-10-31T03:10:27;8.43;;;5.63;;
5333;SDS011;2689;50.954;7.116;2022-10-31T03:13:02;11.90;;;6.13;;
5333;SDS011;2689;50.954;7.116;2022-10-31T03:15:36;9.47;;;5.67;;
5333;SDS011;2689;50.954;7.116;2022-10-31T03:18:07;16.73;;;6.30;;
5333;SDS011;2689;50.954;7.116;2022-10-31T03:20:37;11.10;;;5.87;;
5333;SDS011;2689;50.954;7.116;2022-10-31T03:23:08;12.03;;;6.70;;
5333;SDS011;2689;50.954;7.116;2022-10-31T03:25:38;8.70;;;6.00;;
5333;SDS011;2689;50.954;7.116;2022-10-31T03:28:06;13.57;;;6.20;;
5333;SDS011;2689;50.954;7.116;2022-10-31T03:30:36;9.50;;;6.83;;
5333;SDS011;2689;50.954;7.116;2022-10-31T03:33:09;13.40;;;7.00;;
5333;SDS011;2689;50.954;7.116;2022-10-31T03:35:40;10.50;;;6.00;;
5333;SDS011;2689;50.954;7.116;2022-10-31T03:38:09;13.73;;;6.70;;
5333;SDS011;2689;50.954;7.116;2022-10-31T03:40:37;13.70;;;6.50;;
5333;SDS011;2689;50.954;7.116;2022-10-31T03:43:07;14.30;;;6.27;;
5333;SDS011;2689;50.954;7.116;2022-10-31T03:45:40;9.33;;;6.70;;
5333;SDS011;2689;50.954;7.116;2022-10-31T03:48:11;12.70;;;6.60;;
5333;SDS011;2689;50.954;7.116;2022-10-31T03:50:40;17.63;;;6.37;;
5333;SDS011;2689;50.954;7.116;2022-10-31T03:53:16;10.37;;;6.07;;
5333;SDS011;2689;50.954;7.116;2022-10-31T03:55:49;16.50;;;6.70;;
5333;SDS011;2689;50.954;7.116;2022-10-31T03:58:21;9.67;;;6.70;;
5333;SDS011;2689;50.954;7.116;2022-10-31T04:00:52;9.37;;;6.60;;
5333;SDS011;2689;50.954;7.116;2022-10-31T04:03:29;9.40;;;6.00;;
5333;SDS011;2689;50.954;7.116;2022-10-31T04:05:59;14.53;;;6.63;;
5333;SDS011;2689;50.954;7.116;2022-10-31T04:08:30;12.27;;;6.40;;
5333;SDS011;2689;50.954;7.116;2022-10-31T04:11:00;10.27;;;6.93;;
5333;SDS011;2689;50.954;7.116;2022-10-31T04:13:29;9.00;;;7.30;;
5333;SDS011;2689;50.954;7.116;2022-10-31T04:15:59;9.93;;;5.63;;
5333;SDS011;2689;50.954;7.116;2022-10-31T04:18:27;9.93;;;6.90;;
5333;SDS011;2689;50.954;7.116;2022-10-31T04:21:00;11.63;;;7.30;;
5333;SDS011;2689;50.954;7.116;2022-10-31T04:23:28;13.87;;;7.33;;
5333;SDS011;2689;50.954;7.116;2022-10-31T04:25:56;11.10;;;6.80;;
5333;SDS011;2689;50.954;7.116;2022-10-31T04:28:23;10.40;;;7.33;;
5333;SDS011;2689;50.954;7.116;2022-10-31T04:30:50;10.63;;;6.63;;
5333;SDS011;2689;50.954;7.116;2022-10-31T04:33:17;15.27;;;7.20;;
5333;SDS011;2689;50.954;7.116;2022-10-31T04:35:44;13.70;;;6.50;;
5333;SDS011;2689;50.954;7.116;2022-10-31T04:38:13;9.00;;;6.53;;
5333;SDS011;2689;50.954;7.116;2022-10-31T04:40:39;13.83;;;6.90;;
5333;SDS011;2689;50.954;7.116;2022-10-31T04:43:06;10.77;;;6.60;;
5333;SDS011;2689;50.954;7.116;2022-10-31T04:45:33;14.27;;;6.60;;
5333;SDS011;2689;50.954;7.116;2022-10-31T04:48:00;11.93;;;7.20;;
5333;SDS011;2689;50.954;7.116;2022-10-31T04:50:26;9.13;;;6.00;;
5333;SDS011;2689;50.954;7.116;2022-10-31T04:52:53;16.93;;;7.00;;
5333;SDS011;2689;50.954;7.116;2022-10-31T04:55:21;12.33;;;7.03;;
5333;SDS011;2689;50.954;7.116;2022-10-31T04:57:49;12.50;;;6.60;;
5333;SDS011;2689;50.954;7.116;2022-10-31T05:00:16;15.50;;;7.80;;
5333;SDS011;2689;50.954;7.116;2022-10-31T05:02:45;10.10;;;6.30;;
5333;SDS011;2689;50.954;7.116;2022-10-31T05:05:12;11.43;;;6.93;;
5333;SDS011;2689;50.954;7.116;2022-10-31T05:07:40;15.03;;;7.47;;
5333;SDS011;2689;50.954;7.116;2022-10-31T05:10:08;11.10;;;7.60;;
5333;SDS011;2689;50.954;7.116;2022-10-31T05:12:37;18.93;;;7.70;;
5333;SDS011;2689;50.954;7.116;2022-10-31T05:15:11;14.93;;;7.13;;
5333;SDS011;2689;50.954;7.116;2022-10-31T05:17:37;14.93;;;7.00;;
5333;SDS011;2689;50.954;7.116;2022-10-31T05:20:05;10.27;;;7.60;;
5333;SDS011;2689;50.954;7.116;2022-10-31T05:22:32;18.43;;;6.97;;
5333;SDS011;2689;50.954;7.116;2022-10-31T05:24:59;12.47;;;6.90;;
5333;SDS011;2689;50.954;7.116;2022-10-31T05:27:25;13.90;;;7.00;;
5333;SDS011;2689;50.954;7.116;2022-10-31T05:29:54;13.93;;;6.50;;
5333;SDS011;2689;50.954;7.116;2022-10-31T05:32:21;17.60;;;7.33;;
5333;SDS011;2689;50.954;7.116;2022-10-31T05:34:47;15.63;;;7.37;;
5333;SDS011;2689;50.954;7.116;2022-10-31T05:37:14;11.30;;;7.77;;
5333;SDS011;2689;50.954;7.116;2022-10-31T05:39:41;17.10;;;7.17;;
5333;SDS011;2689;50.954;7.116;2022-10-31T05:42:08;12.67;;;7.20;;
5333;SDS011;2689;50.954;7.116;2022-10-31T05:44:34;14.80;;;7.70;;
5333;SDS011;2689;50.954;7.116;2022-10-31T05:47:03;13.97;;;7.97;;
5333;SDS011;2689;50.954;7.116;2022-10-31T05:49:29;10.97;;;7.60;;
5333;SDS011;2689;50.954;7.116;2022-10-31T05:51:56;11.70;;;7.97;;
5333;SDS011;2689;50.954;7.116;2022-10-31T05:54:23;15.70;;;8.23;;
5333;SDS011;2689;50.954;7.116;2022-10-31T05:56:50;14.67;;;8.47;;
5333;SDS011;2689;50.954;7.116;2022-10-31T05:59:17;13.00;;;7.77;;
5333;SDS011;2689;50.954;7.116;2022-10-31T06:01:43;13.93;;;7.97;;
5333;SDS011;2689;50.954;7.116;2022-10-31T06:04:11;12.53;;;8.70;;
5333;SDS011;2689;50.954;7.116;2022-10-31T06:06:38;16.30;;;8.73;;
5333;SDS011;2689;50.954;7.116;2022-10-31T06:09:05;23.50;;;8.73;;
5333;SDS011;2689;50.954;7.116;2022-10-31T06:11:32;18.33;;;9.50;;
5333;SDS011;2689;50.954;7.116;2022-10-31T06:14:01;16.47;;;9.40;;
5333;SDS011;2689;50.954;7.116;2022-10-31T06:16:28;14.70;;;10.40;;
5333;SDS011;2689;50.954;7.116;2022-10-31T06:18:54;22.20;;;10.57;;
5333;SDS011;2689;50.954;7.116;2022-10-31T06:21:23;13.30;;;8.93;;
5333;SDS011;2689;50.954;7.116;2022-10-31T06:23:49;14.53;;;8.73;;
5333;SDS011;2689;50.954;7.116;2022-10-31T06:26:16;16.50;;;7.70;;
5333;SDS011;2689;50.954;7.116;2022-10-31T06:28:43;19.23;;;9.33;;
5333;SDS011;2689;50.954;7.116;2022-10-31T06:31:10;16.07;;;8.57;;
5333;SDS011;2689;50.954;7.116;2022-10-31T06:33:37;18.13;;;8.50;;
5333;SDS011;2689;50.954;7.116;2022-10-31T06:36:04;17.20;;;7.87;;
5333;SDS011;2689;50.954;7.116;2022-10-31T06:38:32;15.97;;;7.47;;
5333;SDS011;2689;50.954;7.116;2022-10-31T06:41:01;11.83;;;7.97;;
5333;SDS011;2689;50.954;7.116;2022-10-31T06:43:29;16.00;;;8.03;;
5333;SDS011;2689;50.954;7.116;2022-10-31T06:45:56;15.20;;;8.60;;
5333;SDS011;2689;50.954;7.116;2022-10-31T06:48:23;13.40;;;7.00;;
5333;SDS011;2689;50.954;7.116;2022-10-31T06:50:53;12.97;;;7.80;;
5333;SDS011;2689;50.954;7.116;2022-10-31T06:53:23;14.57;;;7.60;;
5333;SDS011;2689;50.954;7.116;2022-10-31T06:55:51;14.87;;;7.73;;
5333;SDS011;2689;50.954;7.116;2022-10-31T06:58:18;18.03;;;8.00;;
5333;SDS011;2689;50.954;7.116;2022-10-31T07:00:45;13.10;;;8.40;;
5333;SDS011;2689;50.954;7.116;2022-10-31T07:03:12;13.70;;;8.40;;
5333;SDS011;2689;50.954;7.116;2022-10-31T07:05:54;13.33;;;8.30;;
5333;SDS011;2689;50.954;7.116;2022-10-31T07:08:22;18.57;;;8.27;;
5333;SDS011;2689;50.954;7.116;2022-10-31T07:10:52;11.60;;;8.43;;
5333;SDS011;2689;50.954;7.116;2022-10-31T07:13:20;13.10;;;8.87;;
5333;SDS011;2689;50.954;7.116;2022-10-31T07:15:50;14.23;;;8.87;;
5333;SDS011;2689;50.954;7.116;2022-10-31T07:18:18;12.40;;;8.70;;
5333;SDS011;2689;50.954;7.116;2022-10-31T07:20:47;16.33;;;9.27;;
5333;SDS011;2689;50.954;7.116;2022-10-31T07:23:14;16.60;;;9.00;;
5333;SDS011;2689;50.954;7.116;2022-10-31T07:25:40;14.67;;;8.87;;
5333;SDS011;2689;50.954;7.116;2022-10-31T07:28:09;14.90;;;8.97;;
5333;SDS011;2689;50.954;7.116;2022-10-31T07:30:36;13.70;;;8.67;;
5333;SDS011;2689;50.954;7.116;2022-10-31T07:33:04;16.03;;;8.37;;
5333;SDS011;2689;50.954;7.116;2022-10-31T07:35:31;11.20;;;7.67;;
5333;SDS011;2689;50.954;7.116;2022-10-31T07:38:06;14.47;;;7.63;;
5333;SDS011;2689;50.954;7.116;2022-10-31T07:40:34;16.40;;;8.10;;
5333;SDS011;2689;50.954;7.116;2022-10-31T07:43:00;15.13;;;8.40;;
5333;SDS011;2689;50.954;7.116;2022-10-31T07:45:29;17.63;;;7.87;;
5333;SDS011;2689;50.954;7.116;2022-10-31T07:47:56;17.10;;;7.53;;
5333;SDS011;2689;50.954;7.116;2022-10-31T07:50:23;13.90;;;8.20;;
5333;SDS011;2689;50.954;7.116;2022-10-31T07:52:58;13.27;;;7.87;;
5333;SDS011;2689;50.954;7.116;2022-10-31T07:55:25;12.83;;;7.17;;
5333;SDS011;2689;50.954;7.116;2022-10-31T07:57:59;11.87;;;8.47;;
5333;SDS011;2689;50.954;7.116;2022-10-31T08:00:26;16.60;;;7.90;;
5333;SDS011;2689;50.954;7.116;2022-10-31T08:02:59;14.30;;;8.10;;
5333;SDS011;2689;50.954;7.116;2022-10-31T08:05:26;13.40;;;8.57;;
5333;SDS011;2689;50.954;7.116;2022-10-31T08:07:53;10.43;;;7.97;;
5333;SDS011;2689;50.954;7.116;2022-10-31T08:10:20;13.00;;;6.67;;
5333;SDS011;2689;50.954;7.116;2022-10-31T08:12:54;10.77;;;6.80;;
5333;SDS011;2689;50.954;7.116;2022-10-31T08:15:21;13.33;;;7.60;;
5333;SDS011;2689;50.954;7.116;2022-10-31T08:17:49;16.40;;;8.00;;
5333;SDS011;2689;50.954;7.116;2022-10-31T08:20:16;16.30;;;8.50;;
5333;SDS011;2689;50.954;7.116;2022-10-31T08:22:51;17.20;;;6.60;;
5333;SDS011;2689;50.954;7.116;2022-10-31T08:25:19;15.13;;;7.83;;
5333;SDS011;2689;50.954;7.116;2022-10-31T08:27:48;18.93;;;7.33;;
5333;SDS011;2689;50.954;7.116;2022-10-31T08:30:15;15.73;;;8.27;;
5333;SDS011;2689;50.954;7.116;2022-10-31T08:32:42;12.27;;;6.97;;
5333;SDS011;2689;50.954;7.116;2022-10-31T08:35:10;17.63;;;7.77;;
5333;SDS011;2689;50.954;7.116;2022-10-31T08:37:37;13.60;;;6.77;;
5333;SDS011;2689;50.954;7.116;2022-10-31T08:40:04;10.97;;;7.23;;
5333;SDS011;2689;50.954;7.116;2022-10-31T08:42:32;14.03;;;6.10;;
5333;SDS011;2689;50.954;7.116;2022-10-31T08:44:59;12.30;;;7.43;;
5333;SDS011;2689;50.954;7.116;2022-10-31T08:47:25;12.17;;;7.47;;
5333;SDS011;2689;50.954;7.116;2022-10-31T08:49:52;12.43;;;7.37;;
5333;SDS011;2689;50.954;7.116;2022-10-31T08:52:23;14.30;;;7.67;;
5333;SDS011;2689;50.954;7.116;2022-10-31T08:54:51;12.87;;;6.83;;
5333;SDS011;2689;50.954;7.116;2022-10-31T08:57:18;13.73;;;7.10;;
5333;SDS011;2689;50.954;7.116;2022-10-31T08:59:44;9.00;;;6.60;;
5333;SDS011;2689;50.954;7.116;2022-10-31T09:02:11;16.30;;;7.67;;
5333;SDS011;2689;50.954;7.116;2022-10-31T09:04:38;10.80;;;6.80;;
5333;SDS011;2689;50.954;7.116;2022-10-31T09:07:05;11.10;;;6.37;;
5333;SDS011;2689;50.954;7.116;2022-10-31T09:09:33;15.37;;;7.93;;
5333;SDS011;2689;50.954;7.116;2022-10-31T09:12:00;17.93;;;7.27;;
5333;SDS011;2689;50.954;7.116;2022-10-31T09:14:26;14.20;;;7.77;;
5333;SDS011;2689;50.954;7.116;2022-10-31T09:16:53;11.87;;;6.63;;
5333;SDS011;2689;50.954;7.116;2022-10-31T09:19:20;12.37;;;7.93;;
5333;SDS011;2689;50.954;7.116;2022-10-31T09:21:47;11.90;;;7.90;;
5333;SDS011;2689;50.954;7.116;2022-10-31T09:24:13;14.40;;;7.30;;
5333;SDS011;2689;50.954;7.116;2022-10-31T09:26:42;16.20;;;7.37;;
5333;SDS011;2689;50.954;7.116;2022-10-31T09:29:08;8.00;;;6.30;;
5333;SDS011;2689;50.954;7.116;2022-10-31T09:31:35;12.27;;;6.27;;
5333;SDS011;2689;50.954;7.116;2022-10-31T09:34:02;13.33;;;6.70;;
5333;SDS011;2689;50.954;7.116;2022-10-31T09:36:29;11.83;;;7.67;;
5333;SDS011;2689;50.954;7.116;2022-10-31T09:38:56;12.90;;;6.60;;
5333;SDS011;2689;50.954;7.116;2022-10-31T09:41:24;14.90;;;7.77;;
5333;SDS011;2689;50.954;7.116;2022-10-31T09:44:02;15.73;;;7.00;;
5333;SDS011;2689;50.954;7.116;2022-10-31T09:46:35;16.47;;;8.87;;
5333;SDS011;2689;50.954;7.116;2022-10-31T09:52:10;13.73;;;7.03;;
5333;SDS011;2689;50.954;7.116;2022-10-31T09:54:44;14.07;;;6.10;;
5333;SDS011;2689;50.954;7.116;2022-10-31T09:57:15;12.73;;;6.30;;
5333;SDS011;2689;50.954;7.116;2022-10-31T09:59:49;13.20;;;6.83;;
5333;SDS011;2689;50.954;7.116;2022-10-31T10:02:17;11.93;;;6.50;;
5333;SDS011;2689;50.954;7.116;2022-10-31T10:04:51;17.87;;;7.73;;
5333;SDS011;2689;50.954;7.116;2022-10-31T10:07:25;17.07;;;7.30;;
5333;SDS011;2689;50.954;7.116;2022-10-31T10:10:02;11.03;;;6.20;;
5333;SDS011;2689;50.954;7.116;2022-10-31T10:12:41;21.60;;;6.97;;
5333;SDS011;2689;50.954;7.116;2022-10-31T10:15:26;16.70;;;5.83;;
5333;SDS011;2689;50.954;7.116;2022-10-31T10:18:04;12.63;;;6.53;;
5333;SDS011;2689;50.954;7.116;2022-10-31T10:20:39;10.67;;;5.80;;
5333;SDS011;2689;50.954;7.116;2022-10-31T10:23:29;12.17;;;6.00;;
5333;SDS011;2689;50.954;7.116;2022-10-31T10:26:10;12.03;;;6.03;;
5333;SDS011;2689;50.954;7.116;2022-10-31T10:28:43;11.90;;;5.53;;
5333;SDS011;2689;50.954;7.116;2022-10-31T10:31:15;10.40;;;6.00;;
5333;SDS011;2689;50.954;7.116;2022-10-31T10:33:46;10.23;;;6.17;;
5333;SDS011;2689;50.954;7.116;2022-10-31T10:36:21;15.63;;;6.40;;
5333;SDS011;2689;50.954;7.116;2022-10-31T10:38:53;14.43;;;5.40;;
5333;SDS011;2689;50.954;7.116;2022-10-31T10:41:26;10.90;;;5.90;;
5333;SDS011;2689;50.954;7.116;2022-10-31T10:43:56;11.37;;;6.20;;
5333;SDS011;2689;50.954;7.116;2022-10-31T10:46:25;15.63;;;6.07;;
5333;SDS011;2689;50.954;7.116;2022-10-31T10:49:17;9.30;;;5.43;;
5333;SDS011;2689;50.954;7.116;2022-10-31T10:51:46;9.70;;;5.20;;
5333;SDS011;2689;50.954;7.116;2022-10-31T10:57:15;11.10;;;5.50;;
5333;SDS011;2689;50.954;7.116;2022-10-31T10:59:48;14.93;;;5.03;;
5333;SDS011;2689;50.954;7.116;2022-10-31T11:02:19;13.57;;;5.50;;
5333;SDS011;2689;50.954;7.116;2022-10-31T11:04:49;13.00;;;6.50;;
5333;SDS011;2689;50.954;7.116;2022-10-31T11:07:18;10.10;;;4.63;;
5333;SDS011;2689;50.954;7.116;2022-10-31T11:09:45;8.70;;;5.03;;
5333;SDS011;2689;50.954;7.116;2022-10-31T11:12:17;11.00;;;5.30;;
5333;SDS011;2689;50.954;7.116;2022-10-31T11:17:22;10.20;;;5.07;;
5333;SDS011;2689;50.954;7.116;2022-10-31T11:20:01;10.67;;;5.47;;
5333;SDS011;2689;50.954;7.116;2022-10-31T11:22:29;14.83;;;4.90;;
5333;SDS011;2689;50.954;7.116;2022-10-31T11:24:56;12.47;;;4.87;;
5333;SDS011;2689;50.954;7.116;2022-10-31T11:27:24;12.97;;;6.37;;
5333;SDS011;2689;50.954;7.116;2022-10-31T11:30:03;15.03;;;5.60;;
5333;SDS011;2689;50.954;7.116;2022-10-31T11:32:32;18.73;;;5.70;;
5333;SDS011;2689;50.954;7.116;2022-10-31T11:35:00;8.43;;;5.27;;
5333;SDS011;2689;50.954;7.116;2022-10-31T11:37:35;11.03;;;5.30;;
5333;SDS011;2689;50.954;7.116;2022-10-31T11:40:15;9.30;;;5.00;;
5333;SDS011;2689;50.954;7.116;2022-10-31T11:42:45;9.20;;;5.63;;
5333;SDS011;2689;50.954;7.116;2022-10-31T11:45:14;10.40;;;5.33;;
5333;SDS011;2689;50.954;7.116;2022-10-31T11:47:46;19.77;;;6.00;;
5333;SDS011;2689;50.954;7.116;2022-10-31T11:50:18;9.87;;;5.40;;
5333;SDS011;2689;50.954;7.116;2022-10-31T11:52:47;9.13;;;4.70;;
5333;SDS011;2689;50.954;7.116;2022-10-31T11:55:16;15.13;;;5.00;;
5333;SDS011;2689;50.954;7.116;2022-10-31T11:57:56;12.50;;;4.73;;
5333;SDS011;2689;50.954;7.116;2022-10-31T12:00:24;10.83;;;4.87;;
5333;SDS011;2689;50.954;7.116;2022-10-31T12:03:06;8.90;;;4.77;;
5333;SDS011;2689;50.954;7.116;2022-10-31T12:05:40;11.73;;;5.37;;
5333;SDS011;2689;50.954;7.116;2022-10-31T12:08:10;16.30;;;8.80;;
5333;SDS011;2689;50.954;7.116;2022-10-31T12:10:40;9.17;;;4.40;;
5333;SDS011;2689;50.954;7.116;2022-10-31T12:13:19;11.73;;;5.93;;
5333;SDS011;2689;50.954;7.116;2022-10-31T12:16:00;14.40;;;7.33;;
5333;SDS011;2689;50.954;7.116;2022-10-31T12:18:42;8.67;;;5.47;;
5333;SDS011;2689;50.954;7.116;2022-10-31T12:21:22;18.57;;;6.80;;
5333;SDS011;2689;50.954;7.116;2022-10-31T12:24:03;13.63;;;4.80;;
5333;SDS011;2689;50.954;7.116;2022-10-31T12:26:41;10.73;;;5.50;;
5333;SDS011;2689;50.954;7.116;2022-10-31T12:29:21;10.13;;;4.07;;
5333;SDS011;2689;50.954;7.116;2022-10-31T12:32:02;9.80;;;5.10;;
5333;SDS011;2689;50.954;7.116;2022-10-31T12:37:43;13.30;;;4.80;;
5333;SDS011;2689;50.954;7.116;2022-10-31T12:40:23;9.10;;;4.20;;
5333;SDS011;2689;50.954;7.116;2022-10-31T12:43:03;9.63;;;5.40;;
5333;SDS011;2689;50.954;7.116;2022-10-31T12:45:44;11.20;;;4.50;;
5333;SDS011;2689;50.954;7.116;2022-10-31T12:51:03;17.20;;;5.00;;
5333;SDS011;2689;50.954;7.116;2022-10-31T12:53:38;10.53;;;5.03;;
5333;SDS011;2689;50.954;7.116;2022-10-31T12:56:27;7.97;;;3.90;;
5333;SDS011;2689;50.954;7.116;2022-10-31T12:59:04;9.07;;;4.57;;
5333;SDS011;2689;50.954;7.116;2022-10-31T13:01:38;7.90;;;4.37;;
5333;SDS011;2689;50.954;7.116;2022-10-31T13:04:11;8.30;;;4.10;;
5333;SDS011;2689;50.954;7.116;2022-10-31T13:06:45;6.90;;;4.10;;
5333;SDS011;2689;50.954;7.116;2022-10-31T13:09:15;11.83;;;4.27;;
5333;SDS011;2689;50.954;7.116;2022-10-31T13:11:55;9.13;;;4.57;;
5333;SDS011;2689;50.954;7.116;2022-10-31T13:14:26;11.80;;;4.40;;
5333;SDS011;2689;50.954;7.116;2022-10-31T13:16:57;11.70;;;4.17;;
5333;SDS011;2689;50.954;7.116;2022-10-31T13:19:27;8.43;;;3.43;;
5333;SDS011;2689;50.954;7.116;2022-10-31T13:22:00;7.70;;;4.10;;
5333;SDS011;2689;50.954;7.116;2022-10-31T13:24:32;9.97;;;4.17;;
5333;SDS011;2689;50.954;7.116;2022-10-31T13:27:03;9.33;;;4.40;;
5333;SDS011;2689;50.954;7.116;2022-10-31T13:29:39;10.60;;;4.23;;
5333;SDS011;2689;50.954;7.116;2022-10-31T13:32:13;8.83;;;3.90;;
5333;SDS011;2689;50.954;7.116;2022-10-31T13:34:40;9.70;;;4.30;;
5333;SDS011;2689;50.954;7.116;2022-10-31T13:37:14;9.00;;;4.00;;
5333;SDS011;2689;50.954;7.116;2022-10-31T13:39:52;9.33;;;4.07;;
5333;SDS011;2689;50.954;7.116;2022-10-31T13:42:34;13.77;;;4.43;;
5333;SDS011;2689;50.954;7.116;2022-10-31T13:45:11;8.60;;;4.10;;
5333;SDS011;2689;50.954;7.116;2022-10-31T13:47:40;9.57;;;3.90;;
5333;SDS011;2689;50.954;7.116;2022-10-31T13:50:19;9.60;;;4.43;;
5333;SDS011;2689;50.954;7.116;2022-10-31T13:52:48;7.13;;;3.80;;
5333;SDS011;2689;50.954;7.116;2022-10-31T13:58:03;12.40;;;4.03;;
5333;SDS011;2689;50.954;7.116;2022-10-31T14:00:30;10.33;;;4.10;;
5333;SDS011;2689;50.954;7.116;2022-10-31T14:03:00;12.03;;;3.80;;
5333;SDS011;2689;50.954;7.116;2022-10-31T14:05:27;9.80;;;4.30;;
5333;SDS011;2689;50.954;7.116;2022-10-31T14:07:58;7.77;;;4.47;;
5333;SDS011;2689;50.954;7.116;2022-10-31T14:10:27;8.33;;;3.83;;
5333;SDS011;2689;50.954;7.116;2022-10-31T14:13:03;13.23;;;4.80;;
5333;SDS011;2689;50.954;7.116;2022-10-31T14:15:31;13.00;;;4.87;;
5333;SDS011;2689;50.954;7.116;2022-10-31T14:18:00;7.20;;;3.67;;
5333;SDS011;2689;50.954;7.116;2022-10-31T14:20:33;7.50;;;4.33;;
5333;SDS011;2689;50.954;7.116;2022-10-31T14:26:20;7.57;;;4.17;;
5333;SDS011;2689;50.954;7.116;2022-10-31T14:28:58;8.10;;;3.87;;
5333;SDS011;2689;50.954;7.116;2022-10-31T14:31:27;14.40;;;4.50;;
5333;SDS011;2689;50.954;7.116;2022-10-31T14:33:59;9.80;;;4.60;;
5333;SDS011;2689;50.954;7.116;2022-10-31T14:36:30;9.23;;;3.80;;
5333;SDS011;2689;50.954;7.116;2022-10-31T14:39:08;10.40;;;4.30;;
5333;SDS011;2689;50.954;7.116;2022-10-31T14:41:45;10.10;;;4.33;;
5333;SDS011;2689;50.954;7.116;2022-10-31T14:47:24;12.20;;;3.73;;
5333;SDS011;2689;50.954;7.116;2022-10-31T14:50:20;6.97;;;4.53;;
5333;SDS011;2689;50.954;7.116;2022-10-31T14:52:51;9.90;;;4.63;;
5333;SDS011;2689;50.954;7.116;2022-10-31T14:55:23;11.00;;;3.37;;
5333;SDS011;2689;50.954;7.116;2022-10-31T14:57:51;10.40;;;3.80;;
5333;SDS011;2689;50.954;7.116;2022-10-31T15:00:21;8.27;;;3.20;;
5333;SDS011;2689;50.954;7.116;2022-10-31T15:02:56;12.47;;;5.03;;
5333;SDS011;2689;50.954;7.116;2022-10-31T15:05:31;7.13;;;3.67;;
5333;SDS011;2689;50.954;7.116;2022-10-31T15:08:00;6.43;;;4.10;;
5333;SDS011;2689;50.954;7.116;2022-10-31T15:10:29;9.80;;;4.40;;
5333;SDS011;2689;50.954;7.116;2022-10-31T15:13:08;10.13;;;3.73;;
5333;SDS011;2689;50.954;7.116;2022-10-31T15:15:35;10.47;;;4.00;;
5333;SDS011;2689;50.954;7.116;2022-10-31T15:18:04;7.03;;;3.37;;
5333;SDS011;2689;50.954;7.116;2022-10-31T15:20:33;13.23;;;3.10;;
5333;SDS011;2689;50.954;7.116;2022-10-31T15:23:09;13.60;;;3.87;;
5333;SDS011;2689;50.954;7.116;2022-10-31T15:25:41;14.30;;;4.40;;
5333;SDS011;2689;50.954;7.116;2022-10-31T15:28:19;6.73;;;3.57;;
5333;SDS011;2689;50.954;7.116;2022-10-31T15:31:15;10.70;;;3.57;;
5333;SDS011;2689;50.954;7.116;2022-10-31T15:34:00;7.60;;;3.00;;
5333;SDS011;2689;50.954;7.116;2022-10-31T15:36:37;17.40;;;3.80;;
5333;SDS011;2689;50.954;7.116;2022-10-31T15:39:33;9.03;;;4.17;;
5333;SDS011;2689;50.954;7.116;2022-10-31T15:42:13;11.33;;;3.93;;
5333;SDS011;2689;50.954;7.116;2022-10-31T15:45:02;8.43;;;4.13;;
5333;SDS011;2689;50.954;7.116;2022-10-31T15:47:48;8.13;;;3.20;;
5333;SDS011;2689;50.954;7.116;2022-10-31T15:50:27;12.87;;;4.70;;
5333;SDS011;2689;50.954;7.116;2022-10-31T15:52:58;10.13;;;4.50;;
5333;SDS011;2689;50.954;7.116;2022-10-31T15:55:27;8.50;;;3.20;;